Time;durP1;ratioP1;P1;durP2;ratioP2;P2;SDS_P1;SDS_P2;PMS_P1;PMS_P2;Temp;Humidity;BMP_temperature;BMP_pressure;BME280_temperature;BME280_humidity;BME280_pressure;Samples;Min_cycle;Max_cycle;Signal;HPM_P1;HPM_P2
2022/12/19 00:01:16;;;;;;;1.10;1.10;;;;;;;;;;4956560;28;22811;-64
2022/12/19 00:03:45;;;;;;;1.20;1.20;;;;;;;;;;4964168;28;20437;-66
2022/12/19 00:06:11;;;;;;;1.10;1.10;;;;;;;;;;4945598;28;20507;-66
2022/12/19 00:08:37;;;;;;;1.20;1.20;;;;;;;;;;4954608;28;21051;-65
2022/12/19 00:11:03;;;;;;;1.30;1.30;;;;;;;;;;4944569;28;21095;-67
2022/12/19 00:13:30;;;;;;;1.45;1.45;;;;;;;;;;4945877;28;20434;-66
2022/12/19 00:15:59;;;;;;;1.25;1.25;;;;;;;;;;4952434;28;20417;-65
2022/12/19 00:18:25;;;;;;;1.40;1.40;;;;;;;;;;4963734;28;20419;-65
2022/12/19 00:20:55;;;;;;;1.20;1.20;;;;;;;;;;4940446;28;20487;-65
2022/12/19 00:23:21;;;;;;;1.50;1.50;;;;;;;;;;4968487;28;20442;-65
2022/12/19 00:25:47;;;;;;;1.30;1.30;;;;;;;;;;4948680;28;20424;-64
2022/12/19 00:28:13;;;;;;;1.10;1.10;;;;;;;;;;4962734;28;20437;-65
2022/12/19 00:30:39;;;;;;;1.00;1.00;;;;;;;;;;4954197;28;20437;-64
2022/12/19 00:33:05;;;;;;;1.20;1.20;;;;;;;;;;4957198;28;21038;-66
2022/12/19 00:35:31;;;;;;;1.03;1.03;;;;;;;;;;4942851;28;20430;-67
2022/12/19 00:37:57;;;;;;;1.10;1.10;;;;;;;;;;4963335;28;20439;-63
2022/12/19 00:40:22;;;;;;;1.20;1.20;;;;;;;;;;4962205;28;20456;-64
2022/12/19 00:42:48;;;;;;;1.20;1.20;;;;;;;;;;4954262;28;20928;-64
2022/12/19 00:45:14;;;;;;;1.00;1.00;;;;;;;;;;4954518;28;20415;-64
2022/12/19 00:47:40;;;;;;;1.20;1.20;;;;;;;;;;4967735;28;20706;-66
2022/12/19 00:50:06;;;;;;;1.10;1.10;;;;;;;;;;4948860;28;20425;-64
2022/12/19 00:52:32;;;;;;;1.23;1.23;;;;;;;;;;4956979;28;20434;-64
2022/12/19 00:54:58;;;;;;;1.23;1.23;;;;;;;;;;4959216;28;20446;-65
2022/12/19 00:57:24;;;;;;;1.00;1.00;;;;;;;;;;4951432;28;20418;-66
2022/12/19 00:59:50;;;;;;;1.10;1.10;;;;;;;;;;4938207;28;21481;-66
2022/12/19 01:02:16;;;;;;;1.30;1.30;;;;;;;;;;4946592;28;20411;-64
2022/12/19 01:04:42;;;;;;;1.00;1.00;;;;;;;;;;4940744;28;25088;-66
2022/12/19 01:07:09;;;;;;;1.00;1.00;;;;;;;;;;4963978;28;20435;-65
2022/12/19 01:09:35;;;;;;;1.30;1.30;;;;;;;;;;4970651;28;20417;-64
2022/12/19 01:14:46;;;;;;;1.08;1.08;;;;;;;;;;4964019;28;20439;-66
2022/12/19 01:17:12;;;;;;;1.20;1.20;;;;;;;;;;4977471;28;20858;-64
2022/12/19 01:19:38;;;;;;;1.10;1.10;;;;;;;;;;4977899;28;20510;-65
2022/12/19 01:22:04;;;;;;;1.08;1.08;;;;;;;;;;4970627;28;20617;-64
2022/12/19 01:24:30;;;;;;;1.20;1.20;;;;;;;;;;4963498;28;20889;-64
2022/12/19 01:26:56;;;;;;;1.20;1.20;;;;;;;;;;4960799;28;20418;-64
2022/12/19 01:29:22;;;;;;;1.00;1.00;;;;;;;;;;4971215;28;20435;-64
2022/12/19 01:31:48;;;;;;;1.30;1.30;;;;;;;;;;4967905;28;20415;-66
2022/12/19 01:34:14;;;;;;;1.10;1.10;;;;;;;;;;4953554;28;20575;-64
2022/12/19 01:36:40;;;;;;;1.30;1.30;;;;;;;;;;4952959;28;21048;-65
2022/12/19 01:39:06;;;;;;;1.10;1.10;;;;;;;;;;4940672;28;20926;-64
2022/12/19 01:41:32;;;;;;;1.25;1.25;;;;;;;;;;4940777;28;20422;-64
2022/12/19 01:43:58;;;;;;;1.10;1.10;;;;;;;;;;4947071;28;20426;-64
2022/12/19 01:46:25;;;;;;;1.13;1.13;;;;;;;;;;4961691;28;21146;-64
2022/12/19 01:48:51;;;;;;;1.00;1.00;;;;;;;;;;4957286;28;20528;-66
2022/12/19 01:51:18;;;;;;;1.20;1.20;;;;;;;;;;4946429;28;21054;-66
2022/12/19 01:53:46;;;;;;;1.10;1.10;;;;;;;;;;4951403;28;20426;-64
2022/12/19 01:56:12;;;;;;;1.00;1.00;;;;;;;;;;4954467;28;21111;-64
2022/12/19 01:58:39;;;;;;;1.30;1.30;;;;;;;;;;4940926;28;20444;-66
2022/12/19 02:01:05;;;;;;;1.10;1.10;;;;;;;;;;4933954;28;20425;-65
2022/12/19 02:03:31;;;;;;;1.00;1.00;;;;;;;;;;4964066;28;20428;-67
2022/12/19 02:05:57;;;;;;;1.10;1.10;;;;;;;;;;4964245;28;20510;-65
2022/12/19 02:08:23;;;;;;;1.00;1.00;;;;;;;;;;4956610;28;20987;-65
2022/12/19 02:10:49;;;;;;;1.00;1.00;;;;;;;;;;4937104;28;20420;-66
2022/12/19 02:13:15;;;;;;;0.90;0.90;;;;;;;;;;4931893;28;20409;-64
2022/12/19 02:15:44;;;;;;;1.40;1.40;;;;;;;;;;4961243;28;21004;-66
2022/12/19 02:18:13;;;;;;;1.10;1.10;;;;;;;;;;4962656;28;22089;-65
2022/12/19 02:20:58;;;;;;;1.13;1.13;;;;;;;;;;4943169;28;20501;-66
2022/12/19 02:23:39;;;;;;;1.00;1.00;;;;;;;;;;4963466;28;20588;-65
2022/12/19 02:26:24;;;;;;;1.00;1.00;;;;;;;;;;4928068;28;20426;-66
2022/12/19 02:28:54;;;;;;;1.00;1.00;;;;;;;;;;4940361;28;20517;-66
2022/12/19 02:31:21;;;;;;;1.20;1.20;;;;;;;;;;4944961;28;20499;-65
2022/12/19 02:33:51;;;;;;;1.20;1.20;;;;;;;;;;4945497;28;20425;-66
2022/12/19 02:36:18;;;;;;;1.20;1.20;;;;;;;;;;4928347;28;20436;-66
2022/12/19 02:38:53;;;;;;;1.27;1.27;;;;;;;;;;4943441;28;20426;-65
2022/12/19 02:41:22;;;;;;;0.98;0.98;;;;;;;;;;4950040;28;21043;-65
2022/12/19 02:43:49;;;;;;;1.20;1.20;;;;;;;;;;4911878;28;20425;-66
2022/12/19 02:46:15;;;;;;;1.08;1.08;;;;;;;;;;4928906;28;20486;-64
2022/12/19 02:48:41;;;;;;;0.95;0.95;;;;;;;;;;4938934;28;20857;-67
2022/12/19 02:51:07;;;;;;;1.00;1.00;;;;;;;;;;4925597;28;20426;-67
2022/12/19 02:53:32;;;;;;;1.30;1.30;;;;;;;;;;4940809;28;21490;-65
2022/12/19 02:56:05;;;;;;;1.00;1.00;;;;;;;;;;4947695;28;20784;-67
2022/12/19 02:58:40;;;;;;;1.20;1.20;;;;;;;;;;4913438;28;20473;-66
2022/12/19 03:01:32;;;;;;;1.00;1.00;;;;;;;;;;4947197;28;20872;-66
2022/12/19 03:04:16;;;;;;;1.30;1.30;;;;;;;;;;4950252;28;21199;-66
2022/12/19 03:06:50;;;;;;;1.00;1.00;;;;;;;;;;4954316;28;20439;-65
2022/12/19 03:09:16;;;;;;;1.00;1.00;;;;;;;;;;4915366;28;20440;-65
2022/12/19 03:11:42;;;;;;;1.25;1.25;;;;;;;;;;4962713;28;20432;-66
2022/12/19 03:14:09;;;;;;;1.10;1.10;;;;;;;;;;4956673;28;20895;-65
2022/12/19 03:16:35;;;;;;;0.90;0.90;;;;;;;;;;4940951;28;20426;-66
2022/12/19 03:19:01;;;;;;;1.20;1.20;;;;;;;;;;4954941;28;20432;-67
2022/12/19 03:21:33;;;;;;;0.90;0.90;;;;;;;;;;4951766;28;20829;-66
2022/12/19 03:23:59;;;;;;;1.10;1.10;;;;;;;;;;4949386;28;20426;-67
2022/12/19 03:26:27;;;;;;;1.10;1.10;;;;;;;;;;4920450;28;20460;-67
2022/12/19 03:28:54;;;;;;;1.40;1.40;;;;;;;;;;4918001;28;20871;-67
2022/12/19 03:31:21;;;;;;;1.10;1.10;;;;;;;;;;4952598;28;20424;-67
2022/12/19 03:33:47;;;;;;;1.10;1.10;;;;;;;;;;4932826;28;20452;-65
2022/12/19 03:36:15;;;;;;;1.10;1.10;;;;;;;;;;4936129;28;20428;-66
2022/12/19 03:38:41;;;;;;;1.30;1.30;;;;;;;;;;4930569;28;20432;-66
2022/12/19 03:41:07;;;;;;;1.00;1.00;;;;;;;;;;4931538;28;21105;-65
2022/12/19 03:43:33;;;;;;;1.40;1.40;;;;;;;;;;4924628;28;20515;-67
2022/12/19 03:46:05;;;;;;;1.00;1.00;;;;;;;;;;4931651;28;20907;-65
2022/12/19 03:48:44;;;;;;;1.30;1.30;;;;;;;;;;4948235;28;20437;-67
2022/12/19 03:51:29;;;;;;;1.10;1.10;;;;;;;;;;4924324;28;20971;-67
2022/12/19 03:54:13;;;;;;;1.20;1.20;;;;;;;;;;4952012;28;21911;-66
2022/12/19 03:56:48;;;;;;;1.00;1.00;;;;;;;;;;4955730;28;20516;-67
2022/12/19 03:59:24;;;;;;;1.20;1.20;;;;;;;;;;4917671;28;20419;-66
2022/12/19 04:01:50;;;;;;;1.13;1.13;;;;;;;;;;4924783;28;20861;-68
2022/12/19 04:04:15;;;;;;;1.10;1.10;;;;;;;;;;4921934;28;20412;-66
2022/12/19 04:06:41;;;;;;;1.00;1.00;;;;;;;;;;4944106;28;20428;-66
2022/12/19 04:09:07;;;;;;;0.90;0.90;;;;;;;;;;4916241;28;20440;-67
2022/12/19 04:11:43;;;;;;;1.20;1.20;;;;;;;;;;4938350;28;20510;-66
2022/12/19 04:14:11;;;;;;;1.00;1.00;;;;;;;;;;4932738;28;21215;-67
2022/12/19 04:16:44;;;;;;;1.10;1.10;;;;;;;;;;4941380;28;21629;-67
2022/12/19 04:19:20;;;;;;;1.10;1.10;;;;;;;;;;4935748;28;20414;-66
2022/12/19 04:21:47;;;;;;;0.88;0.88;;;;;;;;;;4953136;28;20426;-67
2022/12/19 04:24:15;;;;;;;1.13;1.13;;;;;;;;;;4952180;28;20417;-67
2022/12/19 04:26:41;;;;;;;0.90;0.90;;;;;;;;;;4916135;28;20427;-67
2022/12/19 04:29:07;;;;;;;1.10;1.10;;;;;;;;;;4937454;28;20466;-67
2022/12/19 04:31:34;;;;;;;1.38;1.38;;;;;;;;;;4954459;28;21026;-66
2022/12/19 04:34:00;;;;;;;1.38;1.38;;;;;;;;;;4947425;28;20955;-67
2022/12/19 04:36:27;;;;;;;1.10;1.10;;;;;;;;;;4967134;28;21108;-67
2022/12/19 04:38:52;;;;;;;1.33;1.33;;;;;;;;;;4935907;28;20429;-67
2022/12/19 04:41:18;;;;;;;1.30;1.30;;;;;;;;;;4927928;28;20979;-67
2022/12/19 04:43:44;;;;;;;1.20;1.20;;;;;;;;;;4948780;28;20758;-66
2022/12/19 04:46:10;;;;;;;1.10;1.10;;;;;;;;;;4962126;28;20426;-65
2022/12/19 04:48:36;;;;;;;1.25;1.25;;;;;;;;;;4954870;28;20427;-65
2022/12/19 04:51:02;;;;;;;1.05;1.05;;;;;;;;;;4954008;28;20416;-67
2022/12/19 04:53:28;;;;;;;1.10;1.10;;;;;;;;;;4944926;28;21128;-65
2022/12/19 04:56:01;;;;;;;1.10;1.10;;;;;;;;;;4947225;28;20430;-65
2022/12/19 04:58:27;;;;;;;1.17;1.17;;;;;;;;;;4948382;28;20462;-65
2022/12/19 05:00:53;;;;;;;1.00;1.00;;;;;;;;;;4935927;28;20564;-66
2022/12/19 05:03:19;;;;;;;1.00;1.00;;;;;;;;;;4950726;28;20401;-66
2022/12/19 05:05:45;;;;;;;1.00;1.00;;;;;;;;;;4955235;28;20470;-66
2022/12/19 05:08:11;;;;;;;1.30;1.30;;;;;;;;;;4938328;28;20501;-67
2022/12/19 05:10:37;;;;;;;0.90;0.90;;;;;;;;;;4950680;28;20426;-65
2022/12/19 05:13:03;;;;;;;1.00;1.00;;;;;;;;;;4951552;28;20418;-66
2022/12/19 05:15:29;;;;;;;1.00;1.00;;;;;;;;;;4961469;28;20437;-65
2022/12/19 05:17:55;;;;;;;1.08;1.08;;;;;;;;;;4932604;28;20770;-66
2022/12/19 05:20:21;;;;;;;1.10;1.10;;;;;;;;;;4926373;28;21088;-65
2022/12/19 05:22:47;;;;;;;1.30;1.30;;;;;;;;;;4917156;28;20461;-67
2022/12/19 05:25:13;;;;;;;1.30;1.30;;;;;;;;;;4931222;28;20427;-65
2022/12/19 05:27:39;;;;;;;1.10;1.10;;;;;;;;;;4945369;28;20429;-65
2022/12/19 05:30:05;;;;;;;1.30;1.30;;;;;;;;;;4958030;28;20412;-66
2022/12/19 05:32:31;;;;;;;1.20;1.20;;;;;;;;;;4953485;28;20583;-65
2022/12/19 05:34:57;;;;;;;1.30;1.30;;;;;;;;;;4954009;28;21759;-67
2022/12/19 05:37:23;;;;;;;1.40;1.40;;;;;;;;;;4941634;28;20434;-65
2022/12/19 05:39:49;;;;;;;1.40;1.40;;;;;;;;;;4929624;28;20797;-65
2022/12/19 05:42:15;;;;;;;1.10;1.10;;;;;;;;;;4958702;28;20506;-65
2022/12/19 05:44:41;;;;;;;1.20;1.20;;;;;;;;;;4944918;28;20433;-67
2022/12/19 05:47:07;;;;;;;1.50;1.50;;;;;;;;;;4934725;28;20480;-67
2022/12/19 05:49:33;;;;;;;1.17;1.17;;;;;;;;;;4953751;28;20488;-68
2022/12/19 05:51:59;;;;;;;1.20;1.20;;;;;;;;;;4965144;28;20494;-68
2022/12/19 05:54:25;;;;;;;1.40;1.40;;;;;;;;;;4962976;28;21027;-68
2022/12/19 05:56:51;;;;;;;1.10;1.10;;;;;;;;;;4960309;28;20426;-69
2022/12/19 05:59:17;;;;;;;1.30;1.30;;;;;;;;;;4945601;28;21345;-68
2022/12/19 06:01:43;;;;;;;1.02;1.02;;;;;;;;;;4950862;28;20405;-67
2022/12/19 06:04:09;;;;;;;1.27;1.27;;;;;;;;;;4950298;28;20427;-68
2022/12/19 06:06:34;;;;;;;1.10;1.10;;;;;;;;;;4947956;28;20416;-67
2022/12/19 06:09:01;;;;;;;1.27;1.27;;;;;;;;;;4936883;28;20435;-67
2022/12/19 06:11:27;;;;;;;1.40;1.40;;;;;;;;;;4940265;28;20531;-66
2022/12/19 06:13:53;;;;;;;1.10;1.10;;;;;;;;;;4929130;28;20422;-67
2022/12/19 06:16:19;;;;;;;1.20;1.20;;;;;;;;;;4934941;28;20614;-67
2022/12/19 06:18:46;;;;;;;1.30;1.30;;;;;;;;;;4962308;28;20431;-66
2022/12/19 06:21:18;;;;;;;1.00;1.00;;;;;;;;;;4963525;28;20478;-66
2022/12/19 06:23:44;;;;;;;1.10;1.10;;;;;;;;;;4966985;28;20506;-66
2022/12/19 06:26:11;;;;;;;1.15;1.15;;;;;;;;;;4944802;28;20417;-65
2022/12/19 06:28:37;;;;;;;1.07;1.07;;;;;;;;;;4965225;28;20526;-66
2022/12/19 06:31:05;;;;;;;1.00;1.00;;;;;;;;;;4966913;28;21068;-65
2022/12/19 06:33:31;;;;;;;1.10;1.10;;;;;;;;;;4961473;28;20429;-65
2022/12/19 06:35:58;;;;;;;1.20;1.20;;;;;;;;;;4979800;28;20429;-65
2022/12/19 06:38:24;;;;;;;1.38;1.38;;;;;;;;;;4965411;28;20462;-65
2022/12/19 06:43:35;;;;;;;1.10;1.10;;;;;;;;;;4977566;28;20419;-65
2022/12/19 06:46:01;;;;;;;1.25;1.25;;;;;;;;;;4985661;28;20415;-66
2022/12/19 06:48:27;;;;;;;1.10;1.10;;;;;;;;;;4969197;28;20840;-65
2022/12/19 06:50:53;;;;;;;1.00;1.00;;;;;;;;;;4993818;28;20420;-65
2022/12/19 06:53:19;;;;;;;1.40;1.40;;;;;;;;;;4983555;28;20433;-64
2022/12/19 06:55:45;;;;;;;1.10;1.10;;;;;;;;;;4988907;28;20427;-65
2022/12/19 06:58:11;;;;;;;1.40;1.40;;;;;;;;;;4989724;28;20430;-66
2022/12/19 07:00:37;;;;;;;1.20;1.20;;;;;;;;;;4963180;28;20432;-64
2022/12/19 07:03:04;;;;;;;1.30;1.30;;;;;;;;;;5020176;22;20413;-52
2022/12/19 07:05:29;;;;;;;1.10;1.10;;;;;;;;;;4958291;23;20533;-53
2022/12/19 07:07:56;;;;;;;1.20;1.20;;;;;;;;;;4963477;28;20439;-54
2022/12/19 07:10:21;;;;;;;1.40;1.40;;;;;;;;;;4965903;28;20478;-53
2022/12/19 07:12:47;;;;;;;1.30;1.30;;;;;;;;;;4963246;28;20507;-54
2022/12/19 07:15:13;;;;;;;1.40;1.40;;;;;;;;;;4944093;28;20463;-53
2022/12/19 07:17:39;;;;;;;1.20;1.20;;;;;;;;;;4961471;28;20420;-54
2022/12/19 07:20:05;;;;;;;1.38;1.38;;;;;;;;;;4969895;28;20455;-52
2022/12/19 07:22:32;;;;;;;1.20;1.20;;;;;;;;;;4951398;28;20418;-53
2022/12/19 07:24:58;;;;;;;1.10;1.10;;;;;;;;;;4951884;28;20484;-53
2022/12/19 07:27:24;;;;;;;1.10;1.10;;;;;;;;;;4949708;28;20467;-54
2022/12/19 07:29:50;;;;;;;0.93;0.93;;;;;;;;;;4967337;28;20556;-53
2022/12/19 07:32:16;;;;;;;1.00;1.00;;;;;;;;;;4952870;28;20420;-53
2022/12/19 07:34:42;;;;;;;1.10;1.10;;;;;;;;;;4952960;28;20457;-53
2022/12/19 07:37:08;;;;;;;1.10;1.10;;;;;;;;;;4967020;28;20398;-53
2022/12/19 07:39:34;;;;;;;1.00;1.00;;;;;;;;;;4958187;28;20665;-54
2022/12/19 07:42:00;;;;;;;1.20;1.20;;;;;;;;;;4968173;28;20430;-52
2022/12/19 07:44:26;;;;;;;1.10;1.10;;;;;;;;;;4970876;28;20459;-53
2022/12/19 07:46:52;;;;;;;1.00;1.00;;;;;;;;;;4979089;28;20515;-53
2022/12/19 07:49:18;;;;;;;1.10;1.10;;;;;;;;;;4978741;28;20493;-53
2022/12/19 07:51:44;;;;;;;1.35;1.35;;;;;;;;;;4972184;28;20420;-53
2022/12/19 07:54:10;;;;;;;1.20;1.20;;;;;;;;;;4965024;28;20422;-54
2022/12/19 07:56:36;;;;;;;1.10;1.10;;;;;;;;;;4963973;28;20448;-53
2022/12/19 07:59:02;;;;;;;1.00;1.00;;;;;;;;;;4957199;28;20419;-53
2022/12/19 08:01:28;;;;;;;1.10;1.10;;;;;;;;;;4948602;28;20431;-54
2022/12/19 08:03:54;;;;;;;1.20;1.20;;;;;;;;;;4963695;28;20415;-53
2022/12/19 08:06:20;;;;;;;1.00;1.00;;;;;;;;;;4968085;28;20516;-54
2022/12/19 08:08:46;;;;;;;1.20;1.20;;;;;;;;;;4970580;28;20434;-53
2022/12/19 08:11:13;;;;;;;1.02;1.02;;;;;;;;;;4985355;28;20447;-53
2022/12/19 08:13:40;;;;;;;1.10;1.10;;;;;;;;;;4982804;28;20407;-53
2022/12/19 08:16:06;;;;;;;1.10;1.10;;;;;;;;;;4977528;28;20412;-53
2022/12/19 08:18:32;;;;;;;1.00;1.00;;;;;;;;;;4965076;28;20422;-53
2022/12/19 08:20:58;;;;;;;1.08;1.08;;;;;;;;;;4949990;28;20430;-52
2022/12/19 08:23:24;;;;;;;1.10;1.10;;;;;;;;;;4968093;28;20423;-54
2022/12/19 08:25:58;;;;;;;1.25;1.25;;;;;;;;;;4970930;28;20424;-53
2022/12/19 08:28:24;;;;;;;1.10;1.10;;;;;;;;;;4968941;28;20429;-54
2022/12/19 08:30:50;;;;;;;1.10;1.10;;;;;;;;;;4973923;28;20448;-52
2022/12/19 08:33:16;;;;;;;0.90;0.90;;;;;;;;;;4977984;28;20829;-52
2022/12/19 08:35:41;;;;;;;1.00;1.00;;;;;;;;;;4975852;28;20949;-53
2022/12/19 08:38:07;;;;;;;1.10;1.10;;;;;;;;;;4946473;28;20911;-53
2022/12/19 08:40:34;;;;;;;1.20;1.20;;;;;;;;;;4962444;28;20432;-54
2022/12/19 08:43:00;;;;;;;0.90;0.90;;;;;;;;;;4943287;28;20419;-54
2022/12/19 08:45:25;;;;;;;1.10;1.10;;;;;;;;;;4939454;28;20450;-54
2022/12/19 08:47:51;;;;;;;1.00;1.00;;;;;;;;;;4925108;28;20498;-53
2022/12/19 08:50:17;;;;;;;1.10;1.10;;;;;;;;;;4942272;28;20703;-53
2022/12/19 08:52:43;;;;;;;1.30;1.30;;;;;;;;;;4959742;28;20482;-53
2022/12/19 08:55:09;;;;;;;1.00;1.00;;;;;;;;;;4950461;28;20510;-53
2022/12/19 08:57:35;;;;;;;1.20;1.20;;;;;;;;;;4957160;28;20497;-53
2022/12/19 09:00:02;;;;;;;0.93;0.93;;;;;;;;;;4957418;28;20460;-54
2022/12/19 09:02:28;;;;;;;1.20;1.20;;;;;;;;;;4938448;28;20420;-54
2022/12/19 09:04:54;;;;;;;1.00;1.00;;;;;;;;;;4955668;28;20434;-53
2022/12/19 09:07:20;;;;;;;1.20;1.20;;;;;;;;;;4952673;28;20521;-53
2022/12/19 09:09:46;;;;;;;1.00;1.00;;;;;;;;;;4967068;28;20525;-53
2022/12/19 09:12:12;;;;;;;1.02;1.02;;;;;;;;;;4959906;28;20414;-53
2022/12/19 09:14:38;;;;;;;1.05;1.05;;;;;;;;;;4955695;28;20875;-53
2022/12/19 09:17:04;;;;;;;1.00;1.00;;;;;;;;;;4962993;28;20467;-53
2022/12/19 09:19:30;;;;;;;1.20;1.20;;;;;;;;;;4956094;28;20428;-53
2022/12/19 09:21:56;;;;;;;0.90;0.90;;;;;;;;;;4960603;28;20426;-53
2022/12/19 09:24:22;;;;;;;1.00;1.00;;;;;;;;;;4968146;28;20970;-54
2022/12/19 09:26:48;;;;;;;0.90;0.90;;;;;;;;;;4985994;28;20420;-53
2022/12/19 09:29:14;;;;;;;1.00;1.00;;;;;;;;;;4955285;28;20525;-53
2022/12/19 09:31:40;;;;;;;1.00;1.00;;;;;;;;;;4966617;28;20444;-54
2022/12/19 09:34:06;;;;;;;1.10;1.10;;;;;;;;;;4984590;28;20425;-54
2022/12/19 09:36:32;;;;;;;1.10;1.10;;;;;;;;;;4988445;28;20424;-53
2022/12/19 09:38:58;;;;;;;1.00;1.00;;;;;;;;;;4992471;28;20817;-53
2022/12/19 09:41:28;;;;;;;1.33;1.33;;;;;;;;;;4960262;28;20418;-54
2022/12/19 09:44:11;;;;;;;1.08;1.08;;;;;;;;;;4976462;28;20777;-54
2022/12/19 09:46:43;;;;;;;1.10;1.10;;;;;;;;;;4958306;28;20444;-54
2022/12/19 09:49:13;;;;;;;1.10;1.10;;;;;;;;;;4965088;28;20789;-55
2022/12/19 09:51:51;;;;;;;1.20;1.20;;;;;;;;;;4954696;28;20495;-53
2022/12/19 09:54:22;;;;;;;1.17;1.17;;;;;;;;;;4975150;28;20418;-53
2022/12/19 09:56:49;;;;;;;1.10;1.10;;;;;;;;;;4936719;28;20428;-54
2022/12/19 09:59:25;;;;;;;1.20;1.20;;;;;;;;;;4963339;28;20532;-54
2022/12/19 10:01:54;;;;;;;1.20;1.20;;;;;;;;;;4967049;28;20479;-54
2022/12/19 10:04:20;;;;;;;1.27;1.27;;;;;;;;;;4976387;28;20502;-53
2022/12/19 10:06:46;;;;;;;1.30;1.30;;;;;;;;;;4969572;28;20994;-54
2022/12/19 10:09:12;;;;;;;1.10;1.10;;;;;;;;;;4956770;28;20487;-54
2022/12/19 10:11:50;;;;;;;1.10;1.10;;;;;;;;;;4966072;28;20425;-53
2022/12/19 10:14:43;;;;;;;1.30;1.30;;;;;;;;;;4972996;28;20446;-54
2022/12/19 10:17:22;;;;;;;1.20;1.20;;;;;;;;;;4966217;28;20488;-54
2022/12/19 10:20:08;;;;;;;1.40;1.40;;;;;;;;;;4965519;28;20415;-54
2022/12/19 10:22:38;;;;;;;1.20;1.20;;;;;;;;;;4950334;28;20424;-53
2022/12/19 10:25:23;;;;;;;1.30;1.30;;;;;;;;;;4972020;28;20432;-53
2022/12/19 10:27:51;;;;;;;1.50;1.50;;;;;;;;;;4984843;28;21027;-53
2022/12/19 10:30:20;;;;;;;1.20;1.20;;;;;;;;;;4932086;28;20432;-54
2022/12/19 10:33:02;;;;;;;1.20;1.20;;;;;;;;;;4993425;28;20768;-54
2022/12/19 10:35:30;;;;;;;1.10;1.10;;;;;;;;;;4973478;28;20430;-53
2022/12/19 10:37:59;;;;;;;1.50;1.50;;;;;;;;;;4976416;28;20425;-53
2022/12/19 10:40:28;;;;;;;1.00;1.00;;;;;;;;;;4970588;28;20892;-52
2022/12/19 10:43:02;;;;;;;1.20;1.20;;;;;;;;;;4949510;28;21128;-53
2022/12/19 10:45:30;;;;;;;1.00;1.00;;;;;;;;;;4956001;28;20897;-53
2022/12/19 10:47:56;;;;;;;1.10;1.10;;;;;;;;;;4959040;28;20436;-54
2022/12/19 10:50:26;;;;;;;1.10;1.10;;;;;;;;;;4967747;28;20433;-54
2022/12/19 10:52:56;;;;;;;1.30;1.30;;;;;;;;;;4982278;28;20556;-54
2022/12/19 10:55:42;;;;;;;1.33;1.33;;;;;;;;;;4952854;28;20514;-54
2022/12/19 10:58:27;;;;;;;1.40;1.40;;;;;;;;;;4935570;28;20538;-54
2022/12/19 11:00:53;;;;;;;1.30;1.30;;;;;;;;;;4953025;28;20514;-53
2022/12/19 11:03:19;;;;;;;1.10;1.10;;;;;;;;;;4959753;28;20773;-54
2022/12/19 11:05:55;;;;;;;1.10;1.10;;;;;;;;;;4976427;28;20929;-54
2022/12/19 11:08:25;;;;;;;1.30;1.30;;;;;;;;;;4954756;28;20430;-54
2022/12/19 11:10:53;;;;;;;1.10;1.10;;;;;;;;;;4958937;28;20807;-53
2022/12/19 11:13:26;;;;;;;1.15;1.15;;;;;;;;;;4983797;28;20446;-54
2022/12/19 11:15:53;;;;;;;1.08;1.08;;;;;;;;;;4964761;28;20525;-54
2022/12/19 11:18:19;;;;;;;1.07;1.07;;;;;;;;;;4974594;28;20955;-54
2022/12/19 11:20:57;;;;;;;1.00;1.00;;;;;;;;;;4987067;28;20414;-54
2022/12/19 11:23:23;;;;;;;1.10;1.10;;;;;;;;;;4983856;28;20415;-54
2022/12/19 11:25:53;;;;;;;1.10;1.10;;;;;;;;;;4956880;28;20925;-53
2022/12/19 11:28:24;;;;;;;1.30;1.30;;;;;;;;;;4959139;28;20432;-54
2022/12/19 11:30:57;;;;;;;1.33;1.33;;;;;;;;;;4958120;28;20513;-54
2022/12/19 11:33:23;;;;;;;0.70;0.70;;;;;;;;;;4950732;28;20430;-54
2022/12/19 11:35:50;;;;;;;0.70;0.70;;;;;;;;;;4993406;28;20423;-55
2022/12/19 11:38:17;;;;;;;0.70;0.70;;;;;;;;;;4989596;28;20447;-53
2022/12/19 11:40:48;;;;;;;0.80;0.80;;;;;;;;;;4958158;28;20420;-54
2022/12/19 11:43:23;;;;;;;0.70;0.70;;;;;;;;;;4967353;28;20462;-53
2022/12/19 11:46:07;;;;;;;1.33;1.33;;;;;;;;;;4973368;28;20428;-53
2022/12/19 11:48:43;;;;;;;0.65;0.65;;;;;;;;;;4982099;28;20424;-54
2022/12/19 11:51:14;;;;;;;0.70;0.70;;;;;;;;;;4973333;28;21018;-54
2022/12/19 11:54:00;;;;;;;0.70;0.70;;;;;;;;;;4965941;28;22266;-54
2022/12/19 11:56:27;;;;;;;0.70;0.70;;;;;;;;;;4976932;28;20457;-53
2022/12/19 11:58:54;;;;;;;0.70;0.70;;;;;;;;;;4932501;28;20890;-54
2022/12/19 12:01:32;;;;;;;0.60;0.60;;;;;;;;;;4935289;28;20794;-54
2022/12/19 12:04:17;;;;;;;0.70;0.70;;;;;;;;;;4951672;28;20446;-54
2022/12/19 12:06:52;;;;;;;0.70;0.70;;;;;;;;;;4970013;28;20424;-53
2022/12/19 12:09:23;;;;;;;0.67;0.67;;;;;;;;;;4958631;28;20537;-54
2022/12/19 12:11:51;;;;;;;0.70;0.70;;;;;;;;;;4968572;28;20420;-54
2022/12/19 12:14:18;;;;;;;0.80;0.80;;;;;;;;;;4972534;28;20437;-54
2022/12/19 12:16:49;;;;;;;0.70;0.70;;;;;;;;;;4971033;28;20499;-54
2022/12/19 12:19:21;;;;;;;0.80;0.80;;;;;;;;;;4967527;28;20433;-54
2022/12/19 12:22:10;;;;;;;0.70;0.70;;;;;;;;;;4945504;28;20623;-54
2022/12/19 12:24:48;;;;;;;1.30;1.30;;;;;;;;;;4939505;28;20538;-54
2022/12/19 12:27:36;;;;;;;1.30;1.30;;;;;;;;;;4983282;28;20425;-54
2022/12/19 12:30:12;;;;;;;1.27;1.27;;;;;;;;;;4963111;28;20430;-54
2022/12/19 12:32:38;;;;;;;0.70;0.70;;;;;;;;;;4956999;28;20514;-53
2022/12/19 12:35:27;;;;;;;0.70;0.70;;;;;;;;;;4981093;28;20424;-53
2022/12/19 12:38:11;;;;;;;0.70;0.70;;;;;;;;;;4964193;28;20515;-54
2022/12/19 12:40:43;;;;;;;0.88;0.88;;;;;;;;;;4993671;28;20527;-53
2022/12/19 12:43:28;;;;;;;0.80;0.80;;;;;;;;;;4956661;28;20468;-53
2022/12/19 12:45:54;;;;;;;0.80;0.80;;;;;;;;;;4947556;28;20566;-53
2022/12/19 12:48:22;;;;;;;1.15;1.15;;;;;;;;;;4969699;28;20444;-54
2022/12/19 12:50:48;;;;;;;1.00;1.00;;;;;;;;;;4969745;28;20433;-54
2022/12/19 12:53:15;;;;;;;1.10;1.10;;;;;;;;;;4949153;28;20426;-53
2022/12/19 12:55:42;;;;;;;1.33;1.33;;;;;;;;;;4959678;28;20427;-53
2022/12/19 12:58:27;;;;;;;1.00;1.00;;;;;;;;;;4968244;28;20410;-53
2022/12/19 13:01:13;;;;;;;1.10;1.10;;;;;;;;;;4977142;28;20436;-53
2022/12/19 13:03:40;;;;;;;1.10;1.10;;;;;;;;;;4956728;28;20481;-54
2022/12/19 13:06:07;;;;;;;1.00;1.00;;;;;;;;;;4962361;28;20411;-54
2022/12/19 13:08:44;;;;;;;0.90;0.90;;;;;;;;;;4972891;28;20438;-53
2022/12/19 13:12:58;;;;;;;1.02;1.02;;;;;;;;;;4956529;28;20430;-53
2022/12/19 13:13:57;;;;;;;1.00;1.00;;;;;;;;;;4952260;28;20775;-54
2022/12/19 13:16:42;;;;;;;0.95;0.95;;;;;;;;;;4976221;28;20985;-53
2022/12/19 13:19:14;;;;;;;0.90;0.90;;;;;;;;;;4976985;28;20462;-53
2022/12/19 13:22:01;;;;;;;0.85;0.85;;;;;;;;;;4964306;28;20872;-53
2022/12/19 13:24:28;;;;;;;0.90;0.90;;;;;;;;;;4899012;28;20999;-54
2022/12/19 13:26:54;;;;;;;1.00;1.00;;;;;;;;;;4954797;28;20434;-54
2022/12/19 13:29:30;;;;;;;1.10;1.10;;;;;;;;;;4952442;28;21013;-53
2022/12/19 13:32:14;;;;;;;1.00;1.00;;;;;;;;;;4958423;28;20418;-54
2022/12/19 13:34:48;;;;;;;1.10;1.10;;;;;;;;;;4960365;28;20428;-54
2022/12/19 13:37:24;;;;;;;1.00;1.00;;;;;;;;;;4966946;28;20422;-53
2022/12/19 13:39:52;;;;;;;1.10;1.10;;;;;;;;;;4966296;28;20407;-54
2022/12/19 13:45:15;;;;;;;1.10;1.10;;;;;;;;;;4975458;28;20493;-54
2022/12/19 13:47:41;;;;;;;1.13;1.13;;;;;;;;;;4973795;28;22105;-54
2022/12/19 13:50:19;;;;;;;1.30;1.30;;;;;;;;;;4971152;28;20426;-54
2022/12/19 13:52:49;;;;;;;1.10;1.10;;;;;;;;;;4979905;28;20440;-53
2022/12/19 13:55:15;;;;;;;1.20;1.20;;;;;;;;;;4970351;28;20506;-53
2022/12/19 13:57:41;;;;;;;1.05;1.05;;;;;;;;;;4975449;28;21758;-54
2022/12/19 14:00:10;;;;;;;1.08;1.08;;;;;;;;;;4987787;28;20416;-54
2022/12/19 14:02:40;;;;;;;1.08;1.08;;;;;;;;;;4942987;28;20446;-53
2022/12/19 14:05:13;;;;;;;1.10;1.10;;;;;;;;;;4949236;28;20434;-54
2022/12/19 14:07:40;;;;;;;1.00;1.00;;;;;;;;;;4969811;28;20417;-53
2022/12/19 14:10:07;;;;;;;0.95;0.95;;;;;;;;;;4977572;28;20438;-53
2022/12/19 14:15:22;;;;;;;0.90;0.90;;;;;;;;;;4987265;28;20683;-54
2022/12/19 14:17:48;;;;;;;1.00;1.00;;;;;;;;;;4968562;28;20445;-53
2022/12/19 14:20:21;;;;;;;0.85;0.85;;;;;;;;;;4959928;28;20424;-54
2022/12/19 14:22:47;;;;;;;0.90;0.90;;;;;;;;;;4938545;28;20437;-53
2022/12/19 14:25:13;;;;;;;1.00;1.00;;;;;;;;;;4946475;28;20747;-53
2022/12/19 14:27:43;;;;;;;1.00;1.00;;;;;;;;;;4964193;28;20433;-53
2022/12/19 14:30:20;;;;;;;0.80;0.80;;;;;;;;;;4986417;28;20552;-53
2022/12/19 14:32:47;;;;;;;0.80;0.80;;;;;;;;;;4945958;28;20841;-53
2022/12/19 14:35:15;;;;;;;0.88;0.88;;;;;;;;;;4955348;28;20921;-54
2022/12/19 14:37:42;;;;;;;0.90;0.90;;;;;;;;;;4952932;28;21040;-53
2022/12/19 14:40:12;;;;;;;0.80;0.80;;;;;;;;;;4969322;28;21513;-54
2022/12/19 14:45:34;;;;;;;0.90;0.90;;;;;;;;;;4955354;28;20450;-53
2022/12/19 14:48:01;;;;;;;1.02;1.02;;;;;;;;;;4979221;28;20436;-53
2022/12/19 14:50:31;;;;;;;0.90;0.90;;;;;;;;;;4972789;28;20414;-53
2022/12/19 14:53:07;;;;;;;0.98;0.98;;;;;;;;;;4967992;28;20438;-53
2022/12/19 14:55:33;;;;;;;1.10;1.10;;;;;;;;;;4950095;28;20868;-54
2022/12/19 14:58:06;;;;;;;0.80;0.80;;;;;;;;;;4969695;28;20934;-53
2022/12/19 15:00:32;;;;;;;1.00;1.00;;;;;;;;;;4961923;28;20526;-54
2022/12/19 15:03:01;;;;;;;0.90;0.90;;;;;;;;;;4972073;28;20888;-53
2022/12/19 15:05:27;;;;;;;1.10;1.10;;;;;;;;;;4937380;28;20517;-54
2022/12/19 15:07:54;;;;;;;1.10;1.10;;;;;;;;;;4936362;28;20529;-52